Time;durP1;ratioP1;P1;durP2;ratioP2;P2;SDS_P1;SDS_P2;PMS_P1;PMS_P2;Temp;Humidity;BMP_temperature;BMP_pressure;BME280_temperature;BME280_humidity;BME280_pressure;Samples;Min_cycle;Max_cycle;Signal;HPM_P1;HPM_P2
2022/04/23 00:00:50;;;;;;;9.55;8.60;;;13.90;99.90;;;;;;5034159;28;20204;-81
2022/04/23 00:03:17;;;;;;;9.23;8.10;;;13.90;99.90;;;;;;5025457;28;20658;-81
2022/04/23 00:05:44;;;;;;;10.68;8.95;;;13.70;99.90;;;;;;5026488;28;20220;-81
2022/04/23 00:08:11;;;;;;;9.30;8.30;;;13.70;99.90;;;;;;5039597;28;20709;-81
2022/04/23 00:10:39;;;;;;;9.25;7.93;;;13.60;99.90;;;;;;5037028;28;20351;-80
2022/04/23 00:13:07;;;;;;;8.57;7.80;;;13.50;99.90;;;;;;5034999;28;20232;-81
2022/04/23 00:15:37;;;;;;;9.48;8.48;;;13.40;99.90;;;;;;5031135;28;20744;-82
2022/04/23 00:18:04;;;;;;;10.50;9.50;;;13.30;99.90;;;;;;5029530;28;20280;-80
2022/04/23 00:20:31;;;;;;;9.80;8.80;;;13.20;99.90;;;;;;5032176;28;20204;-80
2022/04/23 00:22:59;;;;;;;12.20;9.38;;;13.30;99.90;;;;;;5039050;28;20204;-79
2022/04/23 00:25:26;;;;;;;11.15;9.55;;;13.00;99.90;;;;;;5028483;28;20239;-80
2022/04/23 00:27:54;;;;;;;8.02;7.22;;;12.90;99.90;;;;;;5038842;28;20271;-80
2022/04/23 00:30:21;;;;;;;10.18;8.68;;;12.90;99.90;;;;;;5030487;28;20291;-81
2022/04/23 00:32:48;;;;;;;9.38;8.43;;;12.80;99.90;;;;;;5029114;28;20271;-81
2022/04/23 00:35:16;;;;;;;11.02;8.60;;;12.70;99.90;;;;;;5033377;28;20308;-82
2022/04/23 00:37:44;;;;;;;9.23;8.32;;;12.70;99.90;;;;;;5044462;28;20307;-81
2022/04/23 00:40:16;;;;;;;8.98;8.10;;;12.70;99.90;;;;;;5033531;28;20294;-81
2022/04/23 00:42:52;;;;;;;10.48;9.38;;;12.60;99.90;;;;;;5037321;28;20207;-79
2022/04/23 00:45:20;;;;;;;8.77;7.93;;;12.50;99.90;;;;;;5034054;28;20226;-80
2022/04/23 00:47:47;;;;;;;9.45;8.55;;;12.50;99.90;;;;;;5045597;28;20214;-81
2022/04/23 00:50:15;;;;;;;9.20;8.32;;;12.40;99.90;;;;;;5040034;28;20298;-79
2022/04/23 00:52:42;;;;;;;8.52;7.70;;;12.50;99.90;;;;;;5039596;28;20199;-79
2022/04/23 00:55:10;;;;;;;10.75;8.45;;;12.30;99.90;;;;;;5041284;28;20258;-81
2022/04/23 00:57:37;;;;;;;11.48;9.80;;;12.20;99.90;;;;;;5036040;28;20574;-79
2022/04/23 01:00:08;;;;;;;9.85;8.85;;;12.20;99.90;;;;;;5048929;28;20198;-79
2022/04/23 01:02:37;;;;;;;11.25;9.07;;;12.20;99.90;;;;;;5047654;28;20215;-81
2022/04/23 01:05:09;;;;;;;14.98;10.05;;;12.10;99.90;;;;;;5041995;28;20289;-79
2022/04/23 01:07:38;;;;;;;9.00;8.15;;;12.10;99.90;;;;;;5031938;28;20206;-79
2022/04/23 01:10:07;;;;;;;11.45;10.40;;;12.10;99.90;;;;;;5028568;28;20212;-81
2022/04/23 01:12:35;;;;;;;12.88;9.90;;;12.10;99.90;;;;;;5037664;28;20270;-79
2022/04/23 01:15:05;;;;;;;10.27;9.35;;;12.00;99.90;;;;;;5050038;28;20238;-79
2022/04/23 01:17:33;;;;;;;10.50;9.40;;;12.00;99.90;;;;;;5052018;28;20223;-79
2022/04/23 01:20:08;;;;;;;10.07;9.18;;;11.90;99.90;;;;;;5051921;28;20274;-79
2022/04/23 01:22:37;;;;;;;10.32;9.25;;;11.80;99.90;;;;;;5043608;28;20195;-79
2022/04/23 01:25:05;;;;;;;10.63;9.52;;;11.70;99.90;;;;;;5050432;28;20218;-80
2022/04/23 01:27:34;;;;;;;11.18;10.02;;;11.60;99.90;;;;;;5039333;28;20212;-81
2022/04/23 01:30:01;;;;;;;10.15;9.15;;;11.70;99.90;;;;;;5046893;28;20236;-79
2022/04/23 01:32:28;;;;;;;11.60;10.43;;;11.50;99.90;;;;;;5046542;28;20235;-81
2022/04/23 01:34:55;;;;;;;11.23;9.40;;;11.50;99.90;;;;;;5052451;28;20249;-81
2022/04/23 01:37:24;;;;;;;11.35;10.13;;;11.60;99.90;;;;;;5037932;28;20267;-81
2022/04/23 01:39:51;;;;;;;11.50;10.40;;;11.40;99.90;;;;;;5046744;28;20279;-80
2022/04/23 01:42:19;;;;;;;11.52;10.35;;;11.40;99.90;;;;;;5048941;28;20185;-80
2022/04/23 01:44:46;;;;;;;12.10;10.80;;;11.40;99.90;;;;;;5053990;28;20208;-78
2022/04/23 01:47:13;;;;;;;11.68;10.52;;;11.30;99.90;;;;;;5044027;28;20208;-79
2022/04/23 01:49:41;;;;;;;11.95;9.75;;;11.30;99.90;;;;;;5036735;28;20209;-81
2022/04/23 01:52:08;;;;;;;10.55;9.50;;;11.20;99.90;;;;;;5047134;28;20248;-81
2022/04/23 01:54:36;;;;;;;12.35;10.63;;;11.20;99.90;;;;;;5040921;28;20285;-81
2022/04/23 01:57:04;;;;;;;14.20;10.57;;;11.10;99.90;;;;;;5052301;28;20232;-81
2022/04/23 01:59:31;;;;;;;11.73;10.50;;;11.10;99.90;;;;;;5048883;28;20228;-81
2022/04/23 02:01:58;;;;;;;12.05;10.02;;;11.00;99.90;;;;;;5039120;28;20718;-79
2022/04/23 02:04:25;;;;;;;11.23;9.95;;;11.00;99.90;;;;;;5042692;28;20212;-81
2022/04/23 02:06:52;;;;;;;13.45;10.20;;;11.00;99.90;;;;;;5042116;28;20264;-82
2022/04/23 02:09:20;;;;;;;14.30;10.65;;;11.00;99.90;;;;;;5035877;28;20204;-80
2022/04/23 02:11:48;;;;;;;14.82;12.77;;;10.90;99.90;;;;;;5048867;28;20279;-80
2022/04/23 02:14:15;;;;;;;12.88;10.57;;;10.90;99.90;;;;;;5058036;28;20315;-80
2022/04/23 02:16:42;;;;;;;13.05;11.50;;;10.90;99.90;;;;;;5059137;28;20193;-81
2022/04/23 02:19:09;;;;;;;15.00;9.90;;;10.70;99.90;;;;;;5059510;28;20185;-81
2022/04/23 02:21:37;;;;;;;11.93;10.52;;;10.70;99.90;;;;;;5050787;28;20223;-78
2022/04/23 02:24:05;;;;;;;12.27;10.98;;;10.70;99.90;;;;;;5059970;28;20204;-80
2022/04/23 02:26:31;;;;;;;12.18;10.35;;;10.60;99.90;;;;;;5059949;28;20188;-80
2022/04/23 02:29:00;;;;;;;11.57;10.38;;;10.60;99.90;;;;;;5059394;28;20231;-81
2022/04/23 02:31:26;;;;;;;11.27;9.95;;;10.50;99.90;;;;;;5054837;28;20265;-80
2022/04/23 02:33:53;;;;;;;12.05;10.95;;;10.50;99.90;;;;;;5039874;28;20197;-80
2022/04/23 02:36:20;;;;;;;13.18;11.77;;;10.50;99.90;;;;;;5039834;28;20189;-80
2022/04/23 02:38:51;;;;;;;12.25;10.60;;;10.60;99.90;;;;;;5039233;28;20215;-80
2022/04/23 02:41:19;;;;;;;12.45;9.98;;;10.40;99.90;;;;;;5039315;28;20178;-80
2022/04/23 02:43:46;;;;;;;11.50;10.30;;;10.40;99.90;;;;;;5054932;28;20185;-80
2022/04/23 02:46:15;;;;;;;11.43;9.85;;;10.40;99.90;;;;;;5059021;28;20188;-80
2022/04/23 02:48:42;;;;;;;11.40;9.68;;;10.40;99.90;;;;;;5055522;28;20219;-81
2022/04/23 02:51:11;;;;;;;11.38;10.27;;;10.30;99.90;;;;;;5055200;28;20240;-80
2022/04/23 02:53:38;;;;;;;12.15;10.95;;;10.30;99.90;;;;;;5053891;28;20192;-80
2022/04/23 02:56:05;;;;;;;13.25;11.85;;;10.20;99.90;;;;;;5053554;28;20193;-80
2022/04/23 02:58:32;;;;;;;15.25;11.07;;;10.20;99.90;;;;;;5038464;28;20602;-79
2022/04/23 03:00:59;;;;;;;11.85;10.57;;;10.20;99.90;;;;;;5033699;28;20205;-80
2022/04/23 03:03:28;;;;;;;13.05;10.68;;;10.10;99.90;;;;;;5046046;28;20227;-79
2022/04/23 03:05:55;;;;;;;13.07;11.35;;;10.20;99.90;;;;;;5039181;28;20220;-79
2022/04/23 03:08:24;;;;;;;11.52;9.43;;;10.10;99.90;;;;;;5035291;28;20223;-80
2022/04/23 03:10:51;;;;;;;11.60;10.30;;;10.10;99.90;;;;;;5054252;28;20208;-78
2022/04/23 03:13:19;;;;;;;12.55;11.35;;;10.10;99.90;;;;;;5036320;28;20228;-78
2022/04/23 03:15:46;;;;;;;14.80;12.10;;;10.00;99.90;;;;;;5027578;28;20228;-79
2022/04/23 03:18:14;;;;;;;12.60;10.77;;;10.00;99.90;;;;;;5045890;28;20211;-80
2022/04/23 03:20:43;;;;;;;14.27;10.95;;;10.10;99.90;;;;;;5045444;28;20200;-80
2022/04/23 03:23:12;;;;;;;13.13;11.20;;;9.90;99.90;;;;;;5039427;28;20684;-80
2022/04/23 03:25:40;;;;;;;15.23;9.60;;;9.90;99.90;;;;;;5042150;28;20226;-79
2022/04/23 03:28:07;;;;;;;12.25;10.45;;;9.90;99.90;;;;;;5040660;28;20200;-80
2022/04/23 03:30:34;;;;;;;13.70;11.52;;;9.90;99.90;;;;;;5026792;28;20222;-81
2022/04/23 03:33:01;;;;;;;13.18;10.65;;;9.80;99.90;;;;;;5039580;28;20235;-81
2022/04/23 03:35:28;;;;;;;10.90;9.35;;;9.80;99.90;;;;;;5040636;28;20235;-79
2022/04/23 03:37:56;;;;;;;11.32;9.43;;;10.00;99.90;;;;;;5041086;28;20283;-81
2022/04/23 03:40:24;;;;;;;11.73;10.52;;;9.80;99.90;;;;;;5040658;28;20208;-82
2022/04/23 03:42:51;;;;;;;12.45;11.00;;;9.70;99.90;;;;;;5039858;28;20204;-81
2022/04/23 03:45:19;;;;;;;13.63;10.55;;;9.70;99.90;;;;;;5037744;28;20312;-80
2022/04/23 03:47:47;;;;;;;17.60;11.02;;;9.60;99.90;;;;;;5036487;28;20201;-82
2022/04/23 03:50:14;;;;;;;13.07;10.95;;;9.60;99.90;;;;;;5038651;28;20280;-81
2022/04/23 03:52:42;;;;;;;10.75;9.70;;;9.60;99.90;;;;;;5034965;28;20240;-81
2022/04/23 03:55:13;;;;;;;11.40;10.20;;;9.50;99.90;;;;;;5031948;28;20252;-81
2022/04/23 03:57:47;;;;;;;13.05;10.90;;;9.50;99.90;;;;;;5038879;28;20291;-81
2022/04/23 04:00:15;;;;;;;15.40;11.13;;;9.50;99.90;;;;;;5033920;28;20204;-81
2022/04/23 04:02:43;;;;;;;11.93;10.60;;;9.40;99.90;;;;;;5033917;28;20608;-82
2022/04/23 04:05:11;;;;;;;12.13;10.43;;;9.40;99.90;;;;;;5047005;28;20212;-80
2022/04/23 04:07:42;;;;;;;10.23;8.95;;;9.50;99.90;;;;;;5045447;28;20256;-79
2022/04/23 04:10:12;;;;;;;12.95;9.00;;;9.30;99.90;;;;;;5054703;28;20222;-79
2022/04/23 04:12:39;;;;;;;10.38;9.20;;;9.40;99.90;;;;;;5045090;28;20220;-80
2022/04/23 04:15:09;;;;;;;12.45;10.63;;;9.30;99.90;;;;;;5052744;28;20287;-79
2022/04/23 04:17:37;;;;;;;12.63;10.30;;;9.30;99.90;;;;;;5041110;28;20224;-81
2022/04/23 04:20:05;;;;;;;12.55;9.48;;;9.50;99.90;;;;;;5042781;28;20236;-80
2022/04/23 04:22:31;;;;;;;11.35;9.90;;;9.30;99.90;;;;;;5029379;28;20232;-81
2022/04/23 04:24:59;;;;;;;12.00;8.50;;;9.30;99.90;;;;;;5041216;28;20251;-81
2022/04/23 04:27:27;;;;;;;11.88;10.45;;;9.30;99.90;;;;;;5025594;28;20200;-81
2022/04/23 04:29:54;;;;;;;12.35;10.43;;;9.30;99.90;;;;;;5030744;28;20250;-81
2022/04/23 04:32:21;;;;;;;10.73;9.27;;;9.30;99.90;;;;;;5037237;28;20307;-81
2022/04/23 04:34:48;;;;;;;11.02;9.93;;;9.30;99.90;;;;;;5028605;28;20234;-79
2022/04/23 04:37:16;;;;;;;10.93;9.48;;;9.30;99.90;;;;;;5034200;28;20268;-79
2022/04/23 04:39:43;;;;;;;11.18;9.45;;;9.40;99.90;;;;;;5020902;28;20201;-79
2022/04/23 04:42:12;;;;;;;12.02;9.88;;;9.20;99.90;;;;;;5021467;28;20205;-79
2022/04/23 04:44:40;;;;;;;11.23;10.10;;;9.20;99.90;;;;;;5035024;28;20247;-81
2022/04/23 04:47:08;;;;;;;10.43;8.82;;;9.30;99.90;;;;;;5035429;28;20272;-80
2022/04/23 04:49:35;;;;;;;11.18;9.98;;;9.30;99.90;;;;;;5031400;28;20204;-81
2022/04/23 04:52:01;;;;;;;11.35;9.82;;;9.30;99.90;;;;;;5025129;28;20228;-80
2022/04/23 04:54:28;;;;;;;9.32;8.40;;;9.30;99.90;;;;;;5032347;28;20227;-80
2022/04/23 04:56:56;;;;;;;12.52;9.85;;;9.30;99.90;;;;;;5036744;28;20207;-80
2022/04/23 04:59:27;;;;;;;12.05;10.13;;;9.40;99.90;;;;;;5025970;28;20200;-80
2022/04/23 05:01:55;;;;;;;11.80;8.48;;;9.40;99.90;;;;;;5026524;28;20227;-79
2022/04/23 05:04:22;;;;;;;9.55;7.72;;;9.50;99.90;;;;;;5032463;28;20233;-80
2022/04/23 05:06:49;;;;;;;10.18;9.07;;;9.60;99.90;;;;;;5030224;28;20292;-81
2022/04/23 05:09:16;;;;;;;9.93;8.73;;;9.70;99.90;;;;;;5031621;28;20207;-80
2022/04/23 05:11:43;;;;;;;9.10;8.20;;;9.90;99.90;;;;;;5038350;28;20610;-79
2022/04/23 05:14:10;;;;;;;9.68;8.68;;;10.50;99.90;;;;;;5034926;28;20221;-79
2022/04/23 05:16:37;;;;;;;9.63;6.55;;;11.10;99.90;;;;;;5032980;28;20641;-80
2022/04/23 05:19:05;;;;;;;8.23;7.38;;;11.90;99.90;;;;;;5029776;28;20211;-79
2022/04/23 05:21:32;;;;;;;8.63;7.72;;;12.60;99.90;;;;;;5042042;28;20260;-80
2022/04/23 05:23:59;;;;;;;8.20;6.57;;;13.40;99.90;;;;;;5048137;28;20227;-79
2022/04/23 05:26:26;;;;;;;7.07;6.38;;;14.10;99.90;;;;;;5042264;28;20206;-81
2022/04/23 05:28:53;;;;;;;7.10;6.40;;;14.50;99.90;;;;;;5048677;28;20197;-81
2022/04/23 05:31:21;;;;;;;9.85;7.15;;;15.10;99.90;;;;;;5043228;28;20288;-82
2022/04/23 05:33:47;;;;;;;7.07;6.28;;;15.70;98.80;;;;;;5038873;28;20269;-82
2022/04/23 05:36:16;;;;;;;6.57;5.97;;;16.10;97.10;;;;;;5047033;28;20229;-79
2022/04/23 05:38:43;;;;;;;7.65;6.55;;;16.40;95.30;;;;;;5043318;28;20609;-81
2022/04/23 05:41:10;;;;;;;10.55;7.05;;;16.80;94.80;;;;;;5046337;28;20199;-81
2022/04/23 05:43:37;;;;;;;6.87;6.27;;;17.20;93.40;;;;;;5050368;28;20203;-82
2022/04/23 05:46:03;;;;;;;7.70;6.23;;;17.50;92.00;;;;;;5047980;28;20505;-82
2022/04/23 05:48:30;;;;;;;6.87;6.27;;;17.70;91.60;;;;;;5045559;28;20461;-84
2022/04/23 05:50:57;;;;;;;10.63;7.20;;;18.00;90.80;;;;;;5044269;28;20442;-83
2022/04/23 05:53:26;;;;;;;6.33;5.53;;;18.00;90.30;;;;;;5046254;28;20694;-83
2022/04/23 05:55:55;;;;;;;8.03;7.20;;;18.30;89.50;;;;;;5030691;28;20519;-82
2022/04/23 05:58:21;;;;;;;6.17;5.57;;;18.50;88.00;;;;;;5042644;28;20817;-81
2022/04/23 06:00:48;;;;;;;6.73;6.03;;;17.90;88.80;;;;;;5033950;28;20481;-81
2022/04/23 06:03:15;;;;;;;8.83;8.03;;;17.90;89.60;;;;;;5043118;28;20449;-79
2022/04/23 06:05:42;;;;;;;6.70;6.10;;;17.90;89.70;;;;;;5036644;28;20492;-81
2022/04/23 06:08:09;;;;;;;10.50;7.50;;;18.50;88.40;;;;;;5033343;28;21001;-79
2022/04/23 06:10:37;;;;;;;10.10;9.10;;;18.70;86.20;;;;;;5039711;28;20479;-80
2022/04/23 06:13:06;;;;;;;9.40;8.50;;;18.80;85.30;;;;;;5041474;28;20555;-81
2022/04/23 06:15:33;;;;;;;7.93;7.23;;;18.80;84.70;;;;;;5038533;28;20478;-79
2022/04/23 06:18:00;;;;;;;8.17;7.00;;;19.00;85.00;;;;;;5040426;28;20452;-80
2022/04/23 06:20:27;;;;;;;8.40;7.40;;;19.20;84.00;;;;;;5038106;28;20461;-80
2022/04/23 06:22:54;;;;;;;7.83;7.10;;;19.40;83.00;;;;;;5044916;28;20453;-82
2022/04/23 06:25:21;;;;;;;11.33;7.67;;;19.20;82.90;;;;;;5045059;28;20498;-80
2022/04/23 06:27:50;;;;;;;8.90;8.00;;;19.10;82.90;;;;;;5045734;28;20482;-81
2022/04/23 06:30:18;;;;;;;8.40;7.60;;;18.90;82.80;;;;;;5048484;28;21173;-83
2022/04/23 06:32:45;;;;;;;9.50;8.10;;;19.10;83.10;;;;;;5044372;28;20701;-80
2022/04/23 06:35:12;;;;;;;8.60;7.80;;;19.20;82.10;;;;;;5038480;28;20477;-81
2022/04/23 06:37:40;;;;;;;8.03;7.20;;;19.80;80.70;;;;;;5040962;28;20525;-83
2022/04/23 06:40:08;;;;;;;9.43;8.10;;;20.10;79.80;;;;;;5043625;28;20535;-79
2022/04/23 06:42:35;;;;;;;9.50;8.70;;;20.30;78.40;;;;;;5027975;28;20803;-80
2022/04/23 06:45:04;;;;;;;9.07;8.20;;;20.30;78.00;;;;;;5032155;28;20463;-81
2022/04/23 06:47:31;;;;;;;8.20;7.47;;;20.50;76.90;;;;;;5044650;28;21296;-82
2022/04/23 06:49:59;;;;;;;11.13;8.67;;;21.00;77.00;;;;;;5042189;28;20519;-82
2022/04/23 06:52:26;;;;;;;9.03;7.93;;;21.10;75.00;;;;;;5035656;28;20494;-82
2022/04/23 06:54:54;;;;;;;12.20;9.30;;;21.70;74.00;;;;;;5045678;28;20540;-82
2022/04/23 06:57:25;;;;;;;8.30;7.60;;;22.20;71.80;;;;;;5052327;28;20431;-82
2022/04/23 06:59:53;;;;;;;9.57;8.60;;;22.40;70.80;;;;;;5046126;28;20820;-82
2022/04/23 07:02:22;;;;;;;8.67;7.77;;;22.20;70.10;;;;;;5028730;28;20466;-80
2022/04/23 07:04:49;;;;;;;9.80;8.80;;;21.70;70.70;;;;;;5033884;28;20475;-82
2022/04/23 07:07:16;;;;;;;10.17;9.17;;;21.40;70.40;;;;;;5037895;28;20519;-80
2022/04/23 07:09:43;;;;;;;8.57;7.77;;;21.30;71.70;;;;;;5036005;28;20464;-80
2022/04/23 07:12:11;;;;;;;10.23;8.70;;;21.40;71.50;;;;;;5038674;28;20507;-83
2022/04/23 07:14:39;;;;;;;9.93;8.83;;;21.40;71.10;;;;;;5033313;28;20460;-81
2022/04/23 07:17:06;;;;;;;9.50;8.60;;;21.60;71.10;;;;;;5050732;28;20439;-84
2022/04/23 07:19:38;;;;;;;9.40;8.50;;;21.90;69.90;;;;;;5051207;28;20719;-82
2022/04/23 07:22:05;;;;;;;9.80;8.93;;;22.00;69.90;;;;;;5042149;28;20502;-80
2022/04/23 07:24:32;;;;;;;11.77;7.63;;;22.10;68.70;;;;;;5039725;28;20510;-81
2022/04/23 07:26:59;;;;;;;10.23;9.07;;;22.20;69.50;;;;;;5051821;28;20455;-81
2022/04/23 07:29:26;;;;;;;9.97;9.07;;;22.80;68.60;;;;;;5049760;28;20453;-82
2022/04/23 07:31:53;;;;;;;12.27;10.40;;;23.50;66.90;;;;;;5047232;28;20485;-82
2022/04/23 07:39:57;;;;;;;13.37;9.30;;;23.60;64.30;;;;;;5058631;28;20404;-80
2022/04/23 07:42:23;;;;;;;9.93;8.70;;;23.90;63.90;;;;;;5038702;28;20433;-81
2022/04/23 07:44:50;;;;;;;10.30;9.10;;;24.00;63.70;;;;;;5038395;28;20475;-80
2022/04/23 07:47:18;;;;;;;15.20;9.40;;;24.10;62.70;;;;;;5038582;28;20424;-80
2022/04/23 07:49:45;;;;;;;10.20;9.30;;;24.70;61.40;;;;;;5037686;28;20529;-79
2022/04/23 07:52:13;;;;;;;9.90;9.00;;;24.90;60.20;;;;;;5037993;28;20436;-79
2022/04/23 07:54:41;;;;;;;10.53;9.47;;;24.60;59.80;;;;;;5037935;28;20500;-80
2022/04/23 07:57:08;;;;;;;11.47;10.37;;;24.90;60.00;;;;;;5038126;28;20429;-80
2022/04/23 07:59:39;;;;;;;10.53;9.50;;;25.00;58.60;;;;;;5038249;28;20453;-80
2022/04/23 08:02:06;;;;;;;10.67;9.30;;;24.90;58.60;;;;;;5055654;28;20505;-79
2022/04/23 08:04:33;;;;;;;10.40;9.40;;;24.40;58.50;;;;;;5043081;28;20473;-80
2022/04/23 08:07:00;;;;;;;12.13;10.90;;;24.00;58.30;;;;;;5056616;28;20458;-79
2022/04/23 08:09:31;;;;;;;10.77;9.30;;;23.50;59.10;;;;;;5048003;28;20463;-79
2022/04/23 08:11:58;;;;;;;9.40;8.40;;;23.40;59.90;;;;;;5039153;28;21127;-80
2022/04/23 08:14:25;;;;;;;15.17;8.93;;;23.90;58.40;;;;;;5026578;28;20491;-79
2022/04/23 08:16:52;;;;;;;8.70;7.87;;;23.40;57.30;;;;;;5033407;28;20455;-83
2022/04/23 08:19:19;;;;;;;8.93;7.40;;;23.10;57.50;;;;;;5039055;28;20451;-81
2022/04/23 08:21:46;;;;;;;8.03;7.33;;;22.70;57.20;;;;;;5038621;28;20563;-83
2022/04/23 08:24:13;;;;;;;8.03;7.10;;;23.00;57.60;;;;;;5038514;28;20472;-79
2022/04/23 08:26:41;;;;;;;10.57;6.73;;;23.60;56.70;;;;;;5039688;28;20455;-81
2022/04/23 08:31:53;;;;;;;7.90;7.10;;;23.90;54.60;;;;;;5040235;28;20534;-82
2022/04/23 08:34:20;;;;;;;7.87;7.10;;;23.90;55.00;;;;;;5037413;28;20543;-82
2022/04/23 08:36:49;;;;;;;7.33;6.53;;;24.20;53.60;;;;;;5044402;28;20445;-81
2022/04/23 08:39:16;;;;;;;7.67;6.83;;;24.30;53.90;;;;;;5042365;28;20543;-79
2022/04/23 08:41:46;;;;;;;6.37;5.87;;;24.20;53.60;;;;;;5037454;28;20527;-79
2022/04/23 08:44:13;;;;;;;7.93;6.50;;;24.50;53.70;;;;;;5031442;28;20469;-79
2022/04/23 08:46:41;;;;;;;6.77;6.17;;;25.00;52.50;;;;;;5030585;28;20578;-79
2022/04/23 08:49:13;;;;;;;6.53;5.63;;;25.40;50.90;;;;;;5031708;28;20451;-79
2022/04/23 08:51:45;;;;;;;7.87;6.17;;;25.50;49.90;;;;;;5035337;28;20494;-78
2022/04/23 08:54:14;;;;;;;5.40;4.67;;;25.30;49.40;;;;;;5033468;28;20498;-78
2022/04/23 08:56:42;;;;;;;7.33;6.63;;;25.00;49.70;;;;;;5039361;28;20506;-80
2022/04/23 08:59:13;;;;;;;6.93;6.33;;;25.00;49.50;;;;;;5035576;28;20471;-79
2022/04/23 09:01:40;;;;;;;6.07;5.47;;;24.80;49.80;;;;;;5047859;28;20455;-79
2022/04/23 09:04:09;;;;;;;6.40;5.80;;;24.20;49.70;;;;;;5046653;28;20475;-78
2022/04/23 09:06:37;;;;;;;5.77;4.83;;;23.70;49.60;;;;;;5057066;28;20463;-78
2022/04/23 09:09:10;;;;;;;6.20;5.27;;;23.40;50.20;;;;;;5051406;28;20530;-78
2022/04/23 09:11:39;;;;;;;5.97;5.47;;;23.70;49.80;;;;;;5044852;28;20449;-78
2022/04/23 09:14:06;;;;;;;5.30;4.80;;;24.00;49.60;;;;;;5045831;28;20521;-79
2022/04/23 09:25:05;;;;;;;5.53;4.80;;;24.90;48.20;;;;;;5038327;28;20455;-81
2022/04/23 09:27:34;;;;;;;7.03;5.63;;;24.80;48.00;;;;;;5041454;28;20537;-79
2022/04/23 09:30:02;;;;;;;5.37;4.87;;;24.50;48.80;;;;;;5044851;28;20454;-79
2022/04/23 09:32:31;;;;;;;6.03;5.40;;;24.50;48.50;;;;;;5046005;28;20451;-80
2022/04/23 09:35:06;;;;;;;5.70;5.20;;;23.80;48.20;;;;;;5040133;28;20564;-78
2022/04/23 09:38:11;;;;;;;7.67;5.80;;;23.70;48.70;;;;;;5039215;28;20974;-79
2022/04/23 09:40:21;;;;;;;5.30;4.73;;;23.40;48.90;;;;;;5032158;28;20447;-80
2022/04/23 09:43:02;;;;;;;5.60;5.00;;;22.70;49.50;;;;;;5028294;28;20446;-78
2022/04/23 09:45:30;;;;;;;5.90;5.40;;;21.90;50.30;;;;;;5031212;28;20466;-79
2022/04/23 09:48:15;;;;;;;6.40;4.30;;;21.60;51.90;;;;;;5040607;28;20754;-79
2022/04/23 09:50:44;;;;;;;6.40;4.40;;;22.10;51.00;;;;;;5038566;28;20812;-80
2022/04/23 09:53:11;;;;;;;4.93;4.50;;;22.70;50.20;;;;;;5046663;28;20519;-79
2022/04/23 09:55:38;;;;;;;5.83;4.53;;;22.60;49.30;;;;;;5049526;28;20493;-79
2022/04/23 09:58:07;;;;;;;7.93;5.27;;;22.50;49.10;;;;;;5042767;28;20475;-80
2022/04/23 10:00:36;;;;;;;6.03;5.43;;;21.80;49.50;;;;;;5047022;28;20458;-80
2022/04/23 10:03:08;;;;;;;5.10;4.53;;;21.90;50.60;;;;;;5044414;28;20533;-78
2022/04/23 10:05:38;;;;;;;6.00;5.40;;;21.80;50.20;;;;;;5040112;28;20897;-78
2022/04/23 10:08:11;;;;;;;4.70;4.30;;;21.00;50.40;;;;;;5053228;28;20424;-78
2022/04/23 10:10:43;;;;;;;6.90;4.57;;;20.90;51.20;;;;;;5042485;28;20505;-77
2022/04/23 10:13:11;;;;;;;6.47;4.20;;;21.00;51.50;;;;;;5047818;28;20522;-77
2022/04/23 10:15:39;;;;;;;4.83;4.30;;;21.30;52.00;;;;;;5041825;28;20493;-78
2022/04/23 10:18:10;;;;;;;3.77;3.47;;;22.20;50.90;;;;;;5050982;28;20430;-79
2022/04/23 10:20:40;;;;;;;5.93;3.80;;;22.60;49.30;;;;;;5042960;28;20490;-78
2022/04/23 10:23:17;;;;;;;4.33;3.83;;;22.80;48.80;;;;;;5041813;28;20431;-78
2022/04/23 10:25:50;;;;;;;6.23;5.03;;;22.20;48.40;;;;;;5052733;28;20477;-79
2022/04/23 10:28:18;;;;;;;9.53;4.00;;;22.00;48.80;;;;;;5056065;28;20465;-78
2022/04/23 10:30:47;;;;;;;5.50;4.10;;;21.70;48.80;;;;;;5054506;28;20466;-77
2022/04/23 10:33:29;;;;;;;4.80;3.80;;;21.10;49.60;;;;;;5042441;28;20454;-79
2022/04/23 10:36:08;;;;;;;4.50;4.10;;;20.60;50.20;;;;;;5049921;28;20455;-79
2022/04/23 10:38:38;;;;;;;4.53;3.40;;;20.00;50.40;;;;;;5043053;28;20566;-77
2022/04/23 10:41:06;;;;;;;4.43;3.80;;;19.70;51.40;;;;;;5042403;28;20440;-81
2022/04/23 10:43:33;;;;;;;5.30;3.83;;;18.80;50.90;;;;;;5054438;28;20454;-81
2022/04/23 10:46:00;;;;;;;4.97;4.47;;;18.70;51.90;;;;;;5053255;28;21010;-79
2022/04/23 10:48:33;;;;;;;3.93;3.30;;;18.40;51.90;;;;;;5051778;28;20435;-80
2022/04/23 10:51:18;;;;;;;3.97;3.57;;;18.40;52.00;;;;;;5040636;28;20865;-81
2022/04/23 10:53:55;;;;;;;3.40;3.10;;;18.40;53.10;;;;;;5042940;28;20928;-80
2022/04/23 10:56:23;;;;;;;4.07;3.67;;;18.40;53.60;;;;;;5038564;28;20458;-79
2022/04/23 10:58:50;;;;;;;8.33;4.67;;;18.50;53.50;;;;;;5037929;28;20478;-79
2022/04/23 11:01:22;;;;;;;4.93;4.43;;;18.40;53.80;;;;;;5047572;28;20454;-79
2022/04/23 11:04:09;;;;;;;3.93;3.60;;;18.60;53.40;;;;;;5035432;28;20480;-79
2022/04/23 11:12:33;;;;;;;5.50;4.10;;;18.70;52.40;;;;;;5039501;28;20231;-81
2022/04/23 11:15:01;;;;;;;4.93;3.73;;;18.60;52.70;;;;;;5034184;28;20464;-79
2022/04/23 11:18:03;;;;;;;5.30;3.80;;;18.60;53.20;;;;;;5038191;28;20474;-80
2022/04/23 11:20:38;;;;;;;4.33;3.93;;;18.60;53.20;;;;;;4977641;28;20488;-81
2022/04/23 11:23:06;;;;;;;4.40;4.00;;;18.70;53.70;;;;;;4976509;28;20470;-80
2022/04/23 11:25:33;;;;;;;5.63;3.87;;;18.60;53.30;;;;;;5009931;28;20886;-82
2022/04/23 11:28:23;;;;;;;4.10;3.70;;;18.60;53.30;;;;;;5037122;28;20453;-82
2022/04/23 11:30:52;;;;;;;4.33;3.93;;;18.70;53.30;;;;;;5028169;28;20456;-81
2022/04/23 11:33:18;;;;;;;4.73;4.23;;;18.80;53.90;;;;;;5041265;28;20451;-80
2022/04/23 11:35:47;;;;;;;4.03;3.67;;;18.80;54.20;;;;;;5044645;28;20482;-80
2022/04/23 11:38:21;;;;;;;4.07;3.70;;;18.80;54.90;;;;;;5046660;28;20485;-80
2022/04/23 11:40:48;;;;;;;5.63;3.80;;;18.70;53.20;;;;;;5048049;28;20451;-81
2022/04/23 11:43:32;;;;;;;4.33;3.93;;;18.60;53.60;;;;;;5045039;28;20469;-81
2022/04/23 11:46:07;;;;;;;4.23;3.33;;;18.30;53.80;;;;;;5034685;28;20473;-80
2022/04/23 11:48:45;;;;;;;6.63;3.37;;;18.20;54.30;;;;;;5043081;28;20470;-81
2022/04/23 11:51:13;;;;;;;3.40;3.10;;;18.40;54.20;;;;;;5040641;28;20482;-81
2022/04/23 11:53:57;;;;;;;5.67;3.40;;;18.40;54.40;;;;;;5039909;28;20501;-81
2022/04/23 11:56:30;;;;;;;3.90;3.50;;;18.60;53.80;;;;;;5035323;28;20479;-81
2022/04/23 11:58:58;;;;;;;4.90;4.40;;;18.60;53.00;;;;;;5037708;28;20450;-79
2022/04/23 12:01:27;;;;;;;10.20;4.27;;;18.60;52.60;;;;;;5041837;28;20457;-79
2022/04/23 12:03:56;;;;;;;4.17;3.77;;;18.60;53.00;;;;;;5032250;28;20526;-81
2022/04/23 12:06:25;;;;;;;3.40;3.10;;;18.40;52.80;;;;;;5042936;28;20526;-80
2022/04/23 12:09:03;;;;;;;4.50;4.10;;;18.20;53.20;;;;;;5044359;28;20451;-82
2022/04/23 12:11:30;;;;;;;3.43;3.13;;;18.20;53.60;;;;;;5043789;28;20431;-80
2022/04/23 12:13:57;;;;;;;4.00;3.67;;;18.20;53.40;;;;;;5052028;28;20466;-80
2022/04/23 12:16:45;;;;;;;5.87;3.30;;;18.20;53.30;;;;;;5041378;28;20458;-81
2022/04/23 12:19:16;;;;;;;4.70;4.20;;;18.20;53.60;;;;;;5038483;28;20474;-80
2022/04/23 12:21:58;;;;;;;4.50;3.90;;;18.20;53.90;;;;;;5032301;28;20471;-81
2022/04/23 12:24:32;;;;;;;4.00;3.60;;;18.20;54.20;;;;;;5039978;28;20963;-84
2022/04/23 12:27:02;;;;;;;3.87;3.30;;;18.40;54.50;;;;;;5036563;28;20524;-80
2022/04/23 12:40:45;;;;;;;3.63;3.33;;;18.60;53.70;;;;;;5043548;28;20543;-79
2022/04/23 12:43:35;;;;;;;3.27;2.97;;;18.50;53.70;;;;;;5041340;28;20510;-79
2022/04/23 12:46:05;;;;;;;3.40;3.00;;;18.50;54.30;;;;;;5040361;28;20913;-80
2022/04/23 12:48:33;;;;;;;3.70;3.10;;;18.70;55.40;;;;;;5046039;28;20454;-80
2022/04/23 12:51:06;;;;;;;3.67;3.37;;;18.50;54.60;;;;;;5041452;28;20451;-80
2022/04/23 12:53:35;;;;;;;3.70;3.27;;;18.60;54.60;;;;;;5032040;28;20474;-80
2022/04/23 12:56:05;;;;;;;4.07;3.67;;;18.60;54.70;;;;;;5037498;28;20510;-79
2022/04/23 12:58:32;;;;;;;5.10;3.43;;;18.70;54.40;;;;;;5045126;28;20447;-79
2022/04/23 13:00:59;;;;;;;3.70;3.23;;;18.90;55.10;;;;;;5047061;28;20974;-80
2022/04/23 13:03:35;;;;;;;4.83;3.30;;;18.90;54.50;;;;;;5044948;28;20471;-81
2022/04/23 13:06:04;;;;;;;6.10;4.33;;;18.90;54.40;;;;;;5045129;28;20460;-80
2022/04/23 13:11:27;;;;;;;4.27;3.23;;;18.90;54.50;;;;;;5034196;28;20478;-80
2022/04/23 13:13:56;;;;;;;6.00;3.20;;;19.00;53.90;;;;;;5040226;28;20435;-80
2022/04/23 13:16:24;;;;;;;4.13;3.73;;;19.00;53.90;;;;;;5051100;28;20516;-79
2022/04/23 13:18:58;;;;;;;5.00;4.50;;;18.90;53.90;;;;;;5040565;28;20451;-79
2022/04/23 13:21:26;;;;;;;9.03;3.60;;;18.90;53.70;;;;;;5048164;28;20434;-79
2022/04/23 13:23:54;;;;;;;5.97;4.77;;;18.80;53.70;;;;;;5058464;28;20454;-80
2022/04/23 13:26:28;;;;;;;6.27;5.40;;;18.70;53.80;;;;;;5052543;28;20439;-80
2022/04/23 13:28:57;;;;;;;4.07;3.70;;;18.70;53.70;;;;;;5056067;28;20450;-79